Time;durP1;ratioP1;P1;durP2;ratioP2;P2;SDS_P1;SDS_P2;PMS_P1;PMS_P2;Temp;Humidity;BMP_temperature;BMP_pressure;BME280_temperature;BME280_humidity;BME280_pressure;Samples;Min_cycle;Max_cycle;Signal;HPM_P1;HPM_P2
2021/10/06 00:00:36;;;;;;;1.10;0.43;;;;;;;;;;4996294;28;20442;-72
2021/10/06 00:03:01;;;;;;;0.73;0.60;;;;;;;;;;5014057;28;20376;-72
2021/10/06 00:05:26;;;;;;;1.40;0.50;;;;;;;;;;5014317;28;20477;-72
2021/10/06 00:07:51;;;;;;;1.63;0.80;;;;;;;;;;5013453;28;20036;-72
2021/10/06 00:10:17;;;;;;;0.85;0.50;;;;;;;;;;5013963;28;20033;-72
2021/10/06 00:12:42;;;;;;;0.70;0.50;;;;;;;;;;5014026;28;20575;-72
2021/10/06 00:15:10;;;;;;;0.55;0.40;;;;;;;;;;4996313;28;20037;-72
2021/10/06 00:17:35;;;;;;;0.60;0.40;;;;;;;;;;4995476;28;20017;-72
2021/10/06 00:20:00;;;;;;;0.90;0.40;;;;;;;;;;4995504;28;20037;-72
2021/10/06 00:22:25;;;;;;;1.20;0.60;;;;;;;;;;5014425;28;20022;-72
2021/10/06 00:24:51;;;;;;;1.75;0.40;;;;;;;;;;4999227;28;20028;-72
2021/10/06 00:27:16;;;;;;;0.40;0.30;;;;;;;;;;5014602;28;20025;-72
2021/10/06 00:29:41;;;;;;;1.15;0.68;;;;;;;;;;4979025;28;20209;-73
2021/10/06 00:32:06;;;;;;;0.50;0.30;;;;;;;;;;4979243;28;20026;-72
2021/10/06 00:34:31;;;;;;;0.60;0.40;;;;;;;;;;5013311;28;20481;-72
2021/10/06 00:36:57;;;;;;;0.60;0.60;;;;;;;;;;4996067;28;20057;-72
2021/10/06 00:39:22;;;;;;;0.40;0.40;;;;;;;;;;5013295;28;20037;-72
2021/10/06 00:41:47;;;;;;;1.25;0.50;;;;;;;;;;5013496;28;20394;-72
2021/10/06 00:44:19;;;;;;;0.55;0.40;;;;;;;;;;5013289;28;20104;-72
2021/10/06 00:46:45;;;;;;;0.70;0.35;;;;;;;;;;4996156;28;20026;-71
2021/10/06 00:49:11;;;;;;;0.40;0.40;;;;;;;;;;4994519;28;20136;-71
2021/10/06 00:51:38;;;;;;;0.90;0.50;;;;;;;;;;5013303;28;20014;-72
2021/10/06 00:54:04;;;;;;;1.52;0.40;;;;;;;;;;5012695;28;20029;-72
2021/10/06 00:56:29;;;;;;;0.50;0.50;;;;;;;;;;5003186;28;20385;-72
2021/10/06 00:58:54;;;;;;;0.63;0.52;;;;;;;;;;5012684;28;20388;-73
2021/10/06 01:01:19;;;;;;;0.68;0.50;;;;;;;;;;5013056;28;20026;-72
2021/10/06 01:03:45;;;;;;;0.90;0.47;;;;;;;;;;4995623;28;20037;-72
2021/10/06 01:06:10;;;;;;;1.90;0.50;;;;;;;;;;5013418;28;20026;-72
2021/10/06 01:08:35;;;;;;;2.63;0.70;;;;;;;;;;5013074;28;20025;-72
2021/10/06 01:11:01;;;;;;;0.88;0.50;;;;;;;;;;5012038;28;20026;-72
2021/10/06 01:13:26;;;;;;;0.75;0.40;;;;;;;;;;5013320;28;20026;-72
2021/10/06 01:15:51;;;;;;;1.35;0.40;;;;;;;;;;4995267;28;20488;-72
2021/10/06 01:18:17;;;;;;;1.42;0.52;;;;;;;;;;5012569;28;20021;-72
2021/10/06 01:20:42;;;;;;;0.73;0.43;;;;;;;;;;4978214;28;20026;-72
2021/10/06 01:23:07;;;;;;;1.45;0.43;;;;;;;;;;4995098;28;20055;-72
2021/10/06 01:25:32;;;;;;;0.80;0.32;;;;;;;;;;5011092;28;20029;-72
2021/10/06 01:27:57;;;;;;;0.93;0.52;;;;;;;;;;5013046;28;20368;-72
2021/10/06 01:30:23;;;;;;;1.67;0.30;;;;;;;;;;4993803;28;20444;-72
2021/10/06 01:32:48;;;;;;;0.35;0.20;;;;;;;;;;4994191;28;20095;-72
2021/10/06 01:35:14;;;;;;;0.50;0.30;;;;;;;;;;4994849;28;20030;-72
2021/10/06 01:37:40;;;;;;;1.05;0.40;;;;;;;;;;4994980;28;20021;-72
2021/10/06 01:40:07;;;;;;;3.15;0.47;;;;;;;;;;5012048;28;20384;-72
2021/10/06 01:42:33;;;;;;;1.50;0.30;;;;;;;;;;4989635;28;20455;-72
2021/10/06 01:44:58;;;;;;;2.42;0.57;;;;;;;;;;4994836;28;20031;-72
2021/10/06 01:47:24;;;;;;;1.35;0.45;;;;;;;;;;4994326;28;20036;-72
2021/10/06 01:49:49;;;;;;;0.40;0.20;;;;;;;;;;4994406;28;20072;-72
2021/10/06 01:52:19;;;;;;;1.27;0.20;;;;;;;;;;4978039;28;20400;-72
2021/10/06 01:54:45;;;;;;;0.70;0.20;;;;;;;;;;5027048;28;20036;-72
2021/10/06 01:57:10;;;;;;;0.57;0.13;;;;;;;;;;5012198;28;20046;-72
2021/10/06 01:59:36;;;;;;;2.58;0.30;;;;;;;;;;5012099;28;20053;-72
2021/10/06 02:02:01;;;;;;;0.73;0.20;;;;;;;;;;5011530;28;20045;-72
2021/10/06 02:04:26;;;;;;;1.20;0.38;;;;;;;;;;5011840;28;20075;-72
2021/10/06 02:06:52;;;;;;;0.52;0.17;;;;;;;;;;4994508;28;20033;-72
2021/10/06 02:09:17;;;;;;;1.08;0.30;;;;;;;;;;4993855;28;20047;-72
2021/10/06 02:11:42;;;;;;;0.88;0.45;;;;;;;;;;5011653;28;20396;-71
2021/10/06 02:14:07;;;;;;;0.52;0.17;;;;;;;;;;5012382;28;20037;-72
2021/10/06 02:16:32;;;;;;;0.13;0.10;;;;;;;;;;5011843;28;20518;-72
2021/10/06 02:18:58;;;;;;;0.65;0.20;;;;;;;;;;5011277;28;20033;-72
2021/10/06 02:21:23;;;;;;;1.00;0.13;;;;;;;;;;5011478;28;20069;-72
2021/10/06 02:23:48;;;;;;;0.73;0.17;;;;;;;;;;4977612;28;20026;-72
2021/10/06 02:26:13;;;;;;;0.45;0.20;;;;;;;;;;5009633;28;20123;-71
2021/10/06 02:28:38;;;;;;;1.95;0.20;;;;;;;;;;5011594;28;20033;-71
2021/10/06 02:31:04;;;;;;;1.33;0.20;;;;;;;;;;5011324;28;20141;-70
2021/10/06 02:33:29;;;;;;;0.95;0.20;;;;;;;;;;5010839;28;20033;-72
2021/10/06 02:35:54;;;;;;;0.77;0.22;;;;;;;;;;4994037;28;20030;-71
2021/10/06 02:38:19;;;;;;;0.20;0.13;;;;;;;;;;5011357;28;20059;-72
2021/10/06 02:40:44;;;;;;;1.27;0.20;;;;;;;;;;4977061;28;20022;-72
2021/10/06 02:43:09;;;;;;;0.50;0.10;;;;;;;;;;4996363;28;20028;-72
2021/10/06 02:45:35;;;;;;;0.60;0.13;;;;;;;;;;5030942;28;20022;-72
2021/10/06 02:48:00;;;;;;;0.73;0.10;;;;;;;;;;4997641;28;20072;-72
2021/10/06 02:50:25;;;;;;;0.40;0.20;;;;;;;;;;4997593;28;20032;-72
2021/10/06 02:52:51;;;;;;;2.55;0.10;;;;;;;;;;4995855;28;20014;-72
2021/10/06 02:55:16;;;;;;;0.68;0.22;;;;;;;;;;5004696;28;20433;-71
2021/10/06 02:57:42;;;;;;;0.95;0.10;;;;;;;;;;5016345;28;20083;-72
2021/10/06 03:00:08;;;;;;;0.80;0.13;;;;;;;;;;5017114;28;20472;-72
2021/10/06 03:02:34;;;;;;;0.40;0.10;;;;;;;;;;4999489;28;20448;-72
2021/10/06 03:04:59;;;;;;;1.25;0.30;;;;;;;;;;5015013;28;20042;-72
2021/10/06 03:07:24;;;;;;;0.50;0.10;;;;;;;;;;5015548;28;20416;-73
2021/10/06 03:09:50;;;;;;;0.43;0.43;;;;;;;;;;5014906;28;20050;-73
2021/10/06 03:12:15;;;;;;;1.38;0.10;;;;;;;;;;4997031;28;20076;-72
2021/10/06 03:14:40;;;;;;;0.98;0.20;;;;;;;;;;4998020;28;20349;-72
2021/10/06 03:17:06;;;;;;;0.90;0.15;;;;;;;;;;4997739;28;20091;-72
2021/10/06 03:19:31;;;;;;;0.57;0.10;;;;;;;;;;4980140;28;20507;-72
2021/10/06 03:21:56;;;;;;;0.77;0.10;;;;;;;;;;5014741;28;20124;-73
2021/10/06 03:24:21;;;;;;;4.22;0.25;;;;;;;;;;5012914;28;20065;-72
2021/10/06 03:26:46;;;;;;;1.02;0.20;;;;;;;;;;5012342;28;20071;-73
2021/10/06 03:29:12;;;;;;;2.30;0.30;;;;;;;;;;4978052;28;20030;-72
2021/10/06 03:31:37;;;;;;;1.20;0.10;;;;;;;;;;4995871;28;20035;-72
2021/10/06 03:34:02;;;;;;;1.05;0.10;;;;;;;;;;4994849;28;20030;-73
2021/10/06 03:36:27;;;;;;;2.45;0.20;;;;;;;;;;4996887;28;20034;-73
2021/10/06 03:38:53;;;;;;;1.23;0.85;;;;;;;;;;5014840;28;20034;-72
2021/10/06 03:41:19;;;;;;;0.77;0.10;;;;;;;;;;4981156;28;20431;-73
2021/10/06 03:43:44;;;;;;;0.30;0.20;;;;;;;;;;4997057;28;20053;-72
2021/10/06 03:46:09;;;;;;;0.30;0.10;;;;;;;;;;4997564;28;20065;-73
2021/10/06 03:48:34;;;;;;;2.00;0.73;;;;;;;;;;5011727;28;20026;-72
2021/10/06 03:50:59;;;;;;;1.55;0.17;;;;;;;;;;5013916;28;20448;-71
2021/10/06 03:53:25;;;;;;;1.77;0.13;;;;;;;;;;4996251;28;20018;-72
2021/10/06 03:55:50;;;;;;;1.35;0.20;;;;;;;;;;4993562;28;20065;-72
2021/10/06 03:58:16;;;;;;;2.17;0.50;;;;;;;;;;5014587;28;20065;-72
2021/10/06 04:00:42;;;;;;;1.05;0.10;;;;;;;;;;4996706;28;20088;-72
2021/10/06 04:03:10;;;;;;;1.70;0.20;;;;;;;;;;5013777;28;20357;-72
2021/10/06 04:05:36;;;;;;;1.52;0.52;;;;;;;;;;4996546;28;20030;-72
2021/10/06 04:08:01;;;;;;;1.27;0.20;;;;;;;;;;5014596;28;20084;-72
2021/10/06 04:10:26;;;;;;;0.40;0.10;;;;;;;;;;4996707;28;20046;-72
2021/10/06 04:12:51;;;;;;;3.17;0.20;;;;;;;;;;4996201;28;20034;-72
2021/10/06 04:15:18;;;;;;;2.47;0.10;;;;;;;;;;5013973;28;20057;-72
2021/10/06 04:17:43;;;;;;;0.93;0.15;;;;;;;;;;4996555;28;20026;-72
2021/10/06 04:20:09;;;;;;;1.02;0.20;;;;;;;;;;5013827;28;20391;-72
2021/10/06 04:22:34;;;;;;;2.67;0.20;;;;;;;;;;5013824;28;20480;-72
2021/10/06 04:24:59;;;;;;;2.67;0.30;;;;;;;;;;4994711;28;20029;-72
2021/10/06 04:27:24;;;;;;;1.45;0.17;;;;;;;;;;4995517;28;20036;-73
2021/10/06 04:29:50;;;;;;;1.38;0.20;;;;;;;;;;4996444;28;20419;-73
2021/10/06 04:32:15;;;;;;;1.58;0.20;;;;;;;;;;5013333;28;20056;-72
2021/10/06 04:34:40;;;;;;;1.08;0.20;;;;;;;;;;4979310;28;20468;-73
2021/10/06 04:37:05;;;;;;;2.05;0.30;;;;;;;;;;5013509;28;20044;-72
2021/10/06 04:39:30;;;;;;;2.22;0.20;;;;;;;;;;5013747;28;20038;-73
2021/10/06 04:41:56;;;;;;;0.80;0.20;;;;;;;;;;4995903;28;20014;-72
2021/10/06 04:44:21;;;;;;;1.88;0.30;;;;;;;;;;5018640;28;20104;-72
2021/10/06 04:46:47;;;;;;;2.08;0.30;;;;;;;;;;5016717;28;20388;-72
2021/10/06 04:49:13;;;;;;;1.02;0.20;;;;;;;;;;4979202;28;20158;-73
2021/10/06 04:51:38;;;;;;;2.70;0.20;;;;;;;;;;4995768;28;20141;-73
2021/10/06 04:54:04;;;;;;;2.70;0.20;;;;;;;;;;5012102;28;20125;-72
2021/10/06 04:56:29;;;;;;;1.58;0.25;;;;;;;;;;5011287;28;20416;-72
2021/10/06 04:58:54;;;;;;;1.20;0.20;;;;;;;;;;5006756;28;20026;-71
2021/10/06 05:01:19;;;;;;;0.35;0.10;;;;;;;;;;5013224;28;20034;-73
2021/10/06 05:03:44;;;;;;;1.20;0.10;;;;;;;;;;4994808;28;20041;-72
2021/10/06 05:06:10;;;;;;;3.20;0.30;;;;;;;;;;5011570;28;20071;-73
2021/10/06 05:08:35;;;;;;;1.23;0.15;;;;;;;;;;4978616;28;20663;-71
2021/10/06 05:11:00;;;;;;;3.35;0.20;;;;;;;;;;5012587;28;20494;-73
2021/10/06 05:13:25;;;;;;;2.72;0.20;;;;;;;;;;5012880;28;20022;-72
2021/10/06 05:15:50;;;;;;;1.90;0.20;;;;;;;;;;5012805;28;20037;-71
2021/10/06 05:18:16;;;;;;;2.70;0.20;;;;;;;;;;5006211;28;20487;-72
2021/10/06 05:20:41;;;;;;;4.07;0.30;;;;;;;;;;4994594;28;20030;-72
2021/10/06 05:23:06;;;;;;;2.17;0.52;;;;;;;;;;5012323;28;20014;-72
2021/10/06 05:25:31;;;;;;;2.28;0.20;;;;;;;;;;4992118;28;20076;-70
2021/10/06 05:27:57;;;;;;;2.50;0.30;;;;;;;;;;4978268;28;20025;-72
2021/10/06 05:30:22;;;;;;;0.93;0.38;;;;;;;;;;5013453;28;20076;-72
2021/10/06 05:32:49;;;;;;;3.30;0.35;;;;;;;;;;4995391;28;20033;-72
2021/10/06 05:35:15;;;;;;;2.42;0.30;;;;;;;;;;5012025;28;20033;-72
2021/10/06 05:37:40;;;;;;;1.40;0.40;;;;;;;;;;5001002;28;20022;-71
2021/10/06 05:40:06;;;;;;;4.53;0.30;;;;;;;;;;4993663;28;20056;-71
2021/10/06 05:42:31;;;;;;;1.58;0.20;;;;;;;;;;4994412;28;20448;-71
2021/10/06 05:44:56;;;;;;;2.00;0.20;;;;;;;;;;5011939;28;20026;-72
2021/10/06 05:47:21;;;;;;;1.08;0.30;;;;;;;;;;5011300;28;20084;-73
2021/10/06 05:49:46;;;;;;;3.58;0.30;;;;;;;;;;4993343;28;20036;-72
2021/10/06 05:52:12;;;;;;;1.65;0.45;;;;;;;;;;5000627;28;20035;-72
2021/10/06 05:54:37;;;;;;;2.55;0.70;;;;;;;;;;4989177;28;20088;-72
2021/10/06 05:57:02;;;;;;;2.33;0.30;;;;;;;;;;5010314;28;20089;-71
2021/10/06 05:59:28;;;;;;;3.50;0.50;;;;;;;;;;5022704;28;20029;-71
2021/10/06 06:01:53;;;;;;;7.82;4.10;;;;;;;;;;4998612;28;20156;-72
2021/10/06 06:04:18;;;;;;;7.80;3.65;;;;;;;;;;4993738;28;20437;-72
2021/10/06 06:06:44;;;;;;;6.80;2.55;;;;;;;;;;5016826;28;20026;-73
2021/10/06 06:09:09;;;;;;;2.42;1.23;;;;;;;;;;5011340;28;20025;-70
2021/10/06 06:11:35;;;;;;;3.03;1.00;;;;;;;;;;5011425;28;20117;-70
2021/10/06 06:14:00;;;;;;;4.13;0.75;;;;;;;;;;5010886;28;20468;-70
2021/10/06 06:16:26;;;;;;;2.10;0.50;;;;;;;;;;5011304;28;20041;-70
2021/10/06 06:18:51;;;;;;;2.10;0.40;;;;;;;;;;5011443;28;20361;-73
2021/10/06 06:21:16;;;;;;;2.88;0.50;;;;;;;;;;5012997;28;20044;-70
2021/10/06 06:23:41;;;;;;;3.05;0.32;;;;;;;;;;4977494;28;20025;-70
2021/10/06 06:26:08;;;;;;;2.03;0.28;;;;;;;;;;4990923;28;20026;-71
2021/10/06 06:28:34;;;;;;;1.73;0.30;;;;;;;;;;5013097;28;20018;-70
2021/10/06 06:30:59;;;;;;;3.05;0.50;;;;;;;;;;5010855;28;20030;-70
2021/10/06 06:33:24;;;;;;;4.55;0.35;;;;;;;;;;4992869;28;20037;-70
2021/10/06 06:35:49;;;;;;;2.90;0.47;;;;;;;;;;5011130;28;20052;-69
2021/10/06 06:38:15;;;;;;;3.28;0.88;;;;;;;;;;4994359;28;20824;-72
2021/10/06 06:40:41;;;;;;;1.50;0.50;;;;;;;;;;4992677;28;20030;-69
2021/10/06 06:43:10;;;;;;;1.85;0.60;;;;;;;;;;4993850;28;20606;-70
2021/10/06 06:45:35;;;;;;;3.78;0.38;;;;;;;;;;5011471;28;20022;-70
2021/10/06 06:48:00;;;;;;;1.20;0.20;;;;;;;;;;5007415;28;20018;-70
2021/10/06 06:50:25;;;;;;;1.27;0.30;;;;;;;;;;5011682;28;20038;-71
2021/10/06 06:52:51;;;;;;;0.88;0.20;;;;;;;;;;5011194;28;20026;-71
2021/10/06 06:55:16;;;;;;;1.27;0.30;;;;;;;;;;5000423;28;20022;-72
2021/10/06 06:57:41;;;;;;;0.43;0.20;;;;;;;;;;4984010;28;20054;-71
2021/10/06 07:00:06;;;;;;;2.55;0.35;;;;;;;;;;5010566;28;20109;-71
2021/10/06 07:02:32;;;;;;;1.05;0.20;;;;;;;;;;4993429;28;20026;-72
2021/10/06 07:04:57;;;;;;;1.70;0.10;;;;;;;;;;5011208;28;20022;-72
2021/10/06 07:07:22;;;;;;;1.40;0.13;;;;;;;;;;4994372;28;20022;-73
2021/10/06 07:09:48;;;;;;;3.70;0.20;;;;;;;;;;5010945;28;20087;-72
2021/10/06 07:12:14;;;;;;;2.03;0.30;;;;;;;;;;5010450;28;20014;-72
2021/10/06 07:14:40;;;;;;;1.33;0.20;;;;;;;;;;5004726;28;20050;-73
2021/10/06 07:17:05;;;;;;;2.05;0.20;;;;;;;;;;4992114;28;20062;-73
2021/10/06 07:19:30;;;;;;;2.20;0.30;;;;;;;;;;4991294;28;20023;-71
2021/10/06 07:21:55;;;;;;;1.00;0.30;;;;;;;;;;5000396;28;20203;-73
2021/10/06 07:24:20;;;;;;;1.27;0.40;;;;;;;;;;4992277;28;20041;-72
2021/10/06 07:26:46;;;;;;;1.90;0.17;;;;;;;;;;4994207;28;20034;-72
2021/10/06 07:29:11;;;;;;;0.40;0.20;;;;;;;;;;4996956;28;20049;-72
2021/10/06 07:31:36;;;;;;;1.35;0.22;;;;;;;;;;5015262;28;20037;-73
2021/10/06 07:34:02;;;;;;;2.13;0.28;;;;;;;;;;5014245;28;20021;-73
2021/10/06 07:36:27;;;;;;;1.80;0.30;;;;;;;;;;4981449;28;20033;-72
2021/10/06 07:38:53;;;;;;;1.35;0.20;;;;;;;;;;4997654;28;20022;-73
2021/10/06 07:41:18;;;;;;;1.48;0.20;;;;;;;;;;5014962;28;20096;-72
2021/10/06 07:43:43;;;;;;;0.57;0.10;;;;;;;;;;4996586;28;20124;-73
2021/10/06 07:46:08;;;;;;;2.75;0.20;;;;;;;;;;4996981;28;20172;-73
2021/10/06 07:48:34;;;;;;;1.33;0.40;;;;;;;;;;5013977;28;20024;-73
2021/10/06 07:50:59;;;;;;;1.42;0.20;;;;;;;;;;5014809;28;20022;-73
2021/10/06 07:53:24;;;;;;;0.73;0.20;;;;;;;;;;5013536;28;20176;-72
2021/10/06 07:55:50;;;;;;;2.15;0.22;;;;;;;;;;5012448;28;20137;-73
2021/10/06 07:58:15;;;;;;;2.22;0.20;;;;;;;;;;4980633;28;20176;-72
2021/10/06 08:00:40;;;;;;;1.40;0.20;;;;;;;;;;4996316;28;20026;-73
2021/10/06 08:03:05;;;;;;;1.75;0.30;;;;;;;;;;4996058;28;20499;-72
2021/10/06 08:05:30;;;;;;;1.45;0.20;;;;;;;;;;5010393;28;20033;-71
2021/10/06 08:07:56;;;;;;;2.40;0.20;;;;;;;;;;5034125;28;20523;-72
2021/10/06 08:10:21;;;;;;;1.77;0.20;;;;;;;;;;5034169;28;20018;-73
2021/10/06 08:12:46;;;;;;;1.52;0.20;;;;;;;;;;5029821;28;20038;-73
2021/10/06 08:15:11;;;;;;;0.82;0.20;;;;;;;;;;4995252;28;20033;-71
2021/10/06 08:17:37;;;;;;;1.95;0.17;;;;;;;;;;4979903;28;20053;-73
2021/10/06 08:20:02;;;;;;;2.70;0.15;;;;;;;;;;5013423;28;20056;-73
2021/10/06 08:22:27;;;;;;;2.33;0.20;;;;;;;;;;5014015;28;20488;-73
2021/10/06 08:24:53;;;;;;;1.38;0.30;;;;;;;;;;5012309;28;20522;-72
2021/10/06 08:27:18;;;;;;;2.92;0.35;;;;;;;;;;5001714;28;20100;-73
2021/10/06 08:29:43;;;;;;;1.33;0.20;;;;;;;;;;4995935;28;20034;-73
2021/10/06 08:32:08;;;;;;;1.38;0.30;;;;;;;;;;5014057;28;20026;-73
2021/10/06 08:34:33;;;;;;;1.27;0.20;;;;;;;;;;5013226;28;20049;-73
2021/10/06 08:36:59;;;;;;;2.38;0.20;;;;;;;;;;5013233;28;20480;-73
2021/10/06 08:39:24;;;;;;;1.25;0.30;;;;;;;;;;4995538;28;20097;-73
2021/10/06 08:41:49;;;;;;;1.33;0.10;;;;;;;;;;4995727;28;20018;-73
2021/10/06 08:44:15;;;;;;;1.65;0.30;;;;;;;;;;5012613;28;20111;-73
2021/10/06 08:46:40;;;;;;;0.93;0.20;;;;;;;;;;4995213;28;20037;-72
2021/10/06 08:49:06;;;;;;;1.50;0.25;;;;;;;;;;4995189;28;20029;-73
2021/10/06 08:51:31;;;;;;;1.00;0.20;;;;;;;;;;5013170;28;20021;-73
2021/10/06 08:53:56;;;;;;;1.05;0.20;;;;;;;;;;5013131;28;20041;-71
2021/10/06 08:56:22;;;;;;;2.85;0.25;;;;;;;;;;5010521;28;20046;-72
2021/10/06 08:58:48;;;;;;;2.67;0.20;;;;;;;;;;5013490;28;20046;-73
2021/10/06 09:01:23;;;;;;;1.60;0.30;;;;;;;;;;5013308;28;20436;-72
2021/10/06 09:03:53;;;;;;;4.07;0.52;;;;;;;;;;5012765;28;20092;-72
2021/10/06 09:06:18;;;;;;;1.55;0.32;;;;;;;;;;5013266;28;20095;-73
2021/10/06 09:08:44;;;;;;;2.13;0.30;;;;;;;;;;4978892;28;20029;-73
2021/10/06 09:11:11;;;;;;;1.25;0.25;;;;;;;;;;4995398;28;20276;-73
2021/10/06 09:13:39;;;;;;;2.33;0.30;;;;;;;;;;5012468;28;20128;-73
2021/10/06 09:16:05;;;;;;;1.00;0.20;;;;;;;;;;4992451;28;20025;-72
2021/10/06 09:18:31;;;;;;;0.52;0.30;;;;;;;;;;5011983;28;20018;-71
2021/10/06 09:20:58;;;;;;;2.88;0.30;;;;;;;;;;5012896;28;20010;-73
2021/10/06 09:23:24;;;;;;;1.30;0.20;;;;;;;;;;4995151;28;20056;-74
2021/10/06 09:25:55;;;;;;;1.77;0.35;;;;;;;;;;5011625;28;20025;-73
2021/10/06 09:28:21;;;;;;;1.70;0.20;;;;;;;;;;5012279;28;20022;-73
2021/10/06 09:30:50;;;;;;;1.95;0.50;;;;;;;;;;4994898;28;20071;-74
2021/10/06 09:33:15;;;;;;;3.10;0.65;;;;;;;;;;5012478;28;20346;-74
2021/10/06 09:35:41;;;;;;;0.88;0.10;;;;;;;;;;4995874;28;20034;-76
2021/10/06 09:38:07;;;;;;;2.78;0.30;;;;;;;;;;4994669;28;20468;-75
2021/10/06 09:40:33;;;;;;;0.32;0.15;;;;;;;;;;5014363;28;20113;-74
2021/10/06 09:42:59;;;;;;;1.88;0.32;;;;;;;;;;5018407;28;20105;-74
2021/10/06 09:45:26;;;;;;;1.42;0.30;;;;;;;;;;4995407;28;20107;-74
2021/10/06 09:48:21;;;;;;;0.93;0.35;;;;;;;;;;5012396;28;20137;-74
2021/10/06 09:50:47;;;;;;;;;;;;;;;;;;4978300;28;20454;-74
2021/10/06 09:53:13;;;;;;;1.88;0.28;;;;;;;;;;5011410;28;20329;-75
2021/10/06 09:55:39;;;;;;;1.20;0.20;;;;;;;;;;5007922;28;20026;-73
2021/10/06 09:58:04;;;;;;;0.75;0.10;;;;;;;;;;5011288;28;20136;-73
2021/10/06 10:00:29;;;;;;;1.05;0.20;;;;;;;;;;4993362;28;20125;-74
2021/10/06 10:02:56;;;;;;;1.52;0.20;;;;;;;;;;5012604;28;20022;-74
2021/10/06 10:05:21;;;;;;;1.85;0.47;;;;;;;;;;5014934;28;20028;-74
2021/10/06 10:07:49;;;;;;;1.02;0.40;;;;;;;;;;4994628;28;20018;-72
2021/10/06 10:10:15;;;;;;;0.70;0.15;;;;;;;;;;5011700;28;20026;-74
2021/10/06 10:12:40;;;;;;;1.05;0.25;;;;;;;;;;4993892;28;20404;-74
2021/10/06 10:15:06;;;;;;;0.63;0.10;;;;;;;;;;4977856;28;20057;-74
2021/10/06 10:17:31;;;;;;;0.63;0.15;;;;;;;;;;4993894;28;20034;-74
2021/10/06 10:19:57;;;;;;;2.25;0.20;;;;;;;;;;5011312;28;20034;-73
2021/10/06 10:22:28;;;;;;;3.63;0.55;;;;;;;;;;5011019;28;20014;-73
2021/10/06 10:24:53;;;;;;;1.75;0.20;;;;;;;;;;5005838;28;20038;-74
2021/10/06 10:27:20;;;;;;;2.17;0.25;;;;;;;;;;4975065;28;20500;-73
2021/10/06 10:29:50;;;;;;;1.35;0.20;;;;;;;;;;4993416;28;20037;-73
2021/10/06 10:32:17;;;;;;;0.68;0.20;;;;;;;;;;4994081;28;20479;-75
2021/10/06 10:35:01;;;;;;;1.58;0.20;;;;;;;;;;5010855;28;20071;-73
2021/10/06 10:37:45;;;;;;;0.57;0.20;;;;;;;;;;5012066;28;20022;-73
2021/10/06 10:40:30;;;;;;;1.25;0.10;;;;;;;;;;5011392;28;20061;-73
2021/10/06 10:42:57;;;;;;;2.42;0.30;;;;;;;;;;4979869;28;20105;-73
2021/10/06 10:45:35;;;;;;;0.63;0.10;;;;;;;;;;4993173;28;20029;-73
2021/10/06 10:48:01;;;;;;;1.50;0.20;;;;;;;;;;5011925;28;20022;-74
2021/10/06 10:50:44;;;;;;;2.15;0.22;;;;;;;;;;4993687;28;20022;-74
2021/10/06 10:53:13;;;;;;;1.33;0.30;;;;;;;;;;5011325;28;20026;-74
2021/10/06 10:55:44;;;;;;;0.77;0.20;;;;;;;;;;5009588;28;20022;-73
2021/10/06 10:58:36;;;;;;;1.30;0.25;;;;;;;;;;4974399;28;20069;-75
2021/10/06 11:01:05;;;;;;;0.70;0.20;;;;;;;;;;4988229;28;20508;-74
2021/10/06 11:03:30;;;;;;;0.93;0.10;;;;;;;;;;4975050;28;20042;-74
2021/10/06 11:05:59;;;;;;;1.55;0.30;;;;;;;;;;4996204;28;20064;-73
2021/10/06 11:08:33;;;;;;;1.95;0.20;;;;;;;;;;4978313;28;20512;-74
2021/10/06 11:11:11;;;;;;;0.55;0.10;;;;;;;;;;4995864;28;20030;-73
2021/10/06 11:13:37;;;;;;;1.52;0.60;;;;;;;;;;4978009;28;20054;-73
2021/10/06 11:16:03;;;;;;;1.23;0.20;;;;;;;;;;4996789;28;20499;-73
2021/10/06 11:18:38;;;;;;;1.15;0.10;;;;;;;;;;4977897;28;20113;-73
2021/10/06 11:21:05;;;;;;;1.88;0.20;;;;;;;;;;4978494;28;20073;-73
2021/10/06 11:23:30;;;;;;;2.05;0.40;;;;;;;;;;4977845;28;20449;-72
2021/10/06 11:26:06;;;;;;;1.05;0.10;;;;;;;;;;4993824;28;20105;-73
2021/10/06 11:28:31;;;;;;;4.05;0.20;;;;;;;;;;4977536;28;20022;-72
2021/10/06 11:30:57;;;;;;;2.15;0.30;;;;;;;;;;4977609;28;20033;-72
2021/10/06 11:33:25;;;;;;;2.30;0.30;;;;;;;;;;4977678;28;20030;-72
2021/10/06 11:35:51;;;;;;;2.17;0.20;;;;;;;;;;4978549;28;20034;-72
2021/10/06 11:38:16;;;;;;;1.77;0.20;;;;;;;;;;4977139;28;20026;-73
2021/10/06 11:40:41;;;;;;;2.13;0.13;;;;;;;;;;4977243;28;20021;-73
2021/10/06 11:43:07;;;;;;;0.90;0.30;;;;;;;;;;4995347;28;20084;-73
2021/10/06 11:45:32;;;;;;;0.82;0.15;;;;;;;;;;4977165;28;20064;-74
2021/10/06 11:48:00;;;;;;;1.55;0.10;;;;;;;;;;4976704;28;20034;-73
2021/10/06 11:50:33;;;;;;;2.42;0.30;;;;;;;;;;4990465;28;20138;-73
2021/10/06 11:52:58;;;;;;;2.22;0.20;;;;;;;;;;4977888;28;20022;-74
2021/10/06 11:55:23;;;;;;;1.33;0.30;;;;;;;;;;4957986;28;20037;-73
2021/10/06 11:57:49;;;;;;;1.70;0.30;;;;;;;;;;4972965;28;20046;-74
2021/10/06 12:00:16;;;;;;;2.70;0.20;;;;;;;;;;4976947;28;20061;-74
2021/10/06 12:02:43;;;;;;;2.45;0.30;;;;;;;;;;4970214;28;20105;-74
2021/10/06 12:05:08;;;;;;;2.42;0.52;;;;;;;;;;4996568;28;20030;-74
2021/10/06 12:07:33;;;;;;;2.83;0.20;;;;;;;;;;4977344;28;20193;-74
2021/10/06 12:10:01;;;;;;;2.00;0.30;;;;;;;;;;4993896;28;20029;-74
2021/10/06 12:12:29;;;;;;;3.38;0.40;;;;;;;;;;4977828;28;20023;-75
2021/10/06 12:15:04;;;;;;;1.40;0.20;;;;;;;;;;4976209;28;20112;-74
2021/10/06 12:17:30;;;;;;;1.02;0.20;;;;;;;;;;4994171;28;20054;-74
2021/10/06 12:20:08;;;;;;;0.95;0.20;;;;;;;;;;4976473;28;20030;-74
2021/10/06 12:22:35;;;;;;;1.20;0.20;;;;;;;;;;4994201;28;20014;-74
2021/10/06 12:25:01;;;;;;;1.45;0.20;;;;;;;;;;4980414;28;20050;-74
2021/10/06 12:27:30;;;;;;;3.40;0.63;;;;;;;;;;4994472;28;20022;-73
2021/10/06 12:30:15;;;;;;;3.55;0.20;;;;;;;;;;4976378;28;20481;-74
2021/10/06 12:32:41;;;;;;;2.65;0.22;;;;;;;;;;4976909;28;20020;-75
2021/10/06 12:35:14;;;;;;;1.60;0.20;;;;;;;;;;4994083;28;20029;-74
2021/10/06 12:37:49;;;;;;;1.95;0.20;;;;;;;;;;4997495;28;20026;-73
2021/10/06 12:40:38;;;;;;;1.08;0.20;;;;;;;;;;4996244;28;20087;-73
2021/10/06 12:43:23;;;;;;;1.33;0.20;;;;;;;;;;4985624;28;20030;-73
2021/10/06 12:45:48;;;;;;;;;;;;;;;;;;4977299;28;20468;-73
2021/10/06 12:48:14;;;;;;;1.95;0.40;;;;;;;;;;4976399;28;20432;-74
2021/10/06 12:50:39;;;;;;;2.22;0.30;;;;;;;;;;4978369;28;20129;-74
2021/10/06 12:53:08;;;;;;;2.22;0.20;;;;;;;;;;4993944;28;20069;-74
2021/10/06 12:55:34;;;;;;;2.00;0.20;;;;;;;;;;4990918;28;20485;-74
2021/10/06 12:58:06;;;;;;;1.40;0.57;;;;;;;;;;4993970;28;20085;-74
2021/10/06 13:00:32;;;;;;;0.80;0.28;;;;;;;;;;4995328;28;20138;-73
2021/10/06 13:02:57;;;;;;;2.03;0.22;;;;;;;;;;4995375;28;20066;-73
2021/10/06 13:05:26;;;;;;;1.58;0.32;;;;;;;;;;5012337;28;20032;-73
2021/10/06 13:07:52;;;;;;;2.40;0.20;;;;;;;;;;4995818;28;20113;-73
2021/10/06 13:10:17;;;;;;;1.42;0.20;;;;;;;;;;5013094;28;20109;-73
2021/10/06 13:12:42;;;;;;;1.38;0.20;;;;;;;;;;5012602;28;20457;-74
2021/10/06 13:15:08;;;;;;;1.52;0.30;;;;;;;;;;5012994;28;20028;-74
2021/10/06 13:17:33;;;;;;;2.60;0.30;;;;;;;;;;4994139;28;20072;-72
2021/10/06 13:19:58;;;;;;;2.88;0.20;;;;;;;;;;4978053;28;20449;-73
2021/10/06 13:22:24;;;;;;;1.50;0.30;;;;;;;;;;4994356;28;20037;-73
2021/10/06 13:24:49;;;;;;;0.95;0.32;;;;;;;;;;5002085;28;20351;-72
2021/10/06 13:27:14;;;;;;;1.83;0.40;;;;;;;;;;5000288;28;20034;-72
2021/10/06 13:29:39;;;;;;;2.57;0.20;;;;;;;;;;4997038;28;20061;-72
2021/10/06 13:32:07;;;;;;;2.13;0.30;;;;;;;;;;4979464;28;20277;-71
2021/10/06 13:34:32;;;;;;;3.53;0.30;;;;;;;;;;4994371;28;20499;-72
2021/10/06 13:36:58;;;;;;;2.67;0.63;;;;;;;;;;5012561;28;20030;-73
2021/10/06 13:39:23;;;;;;;2.45;0.50;;;;;;;;;;5011918;28;20049;-73
2021/10/06 13:41:48;;;;;;;0.68;0.10;;;;;;;;;;5011991;28;20029;-73
2021/10/06 13:44:14;;;;;;;2.22;0.30;;;;;;;;;;5011878;28;20044;-73
2021/10/06 13:46:39;;;;;;;0.85;0.15;;;;;;;;;;4991431;28;20026;-73
2021/10/06 13:49:05;;;;;;;0.82;0.20;;;;;;;;;;4987820;28;20072;-73
2021/10/06 13:51:30;;;;;;;1.38;0.20;;;;;;;;;;5011770;28;20022;-73
2021/10/06 13:53:56;;;;;;;1.00;0.20;;;;;;;;;;5012471;28;20029;-73
2021/10/06 13:56:21;;;;;;;0.65;0.20;;;;;;;;;;5008917;28;20054;-73
2021/10/06 13:58:46;;;;;;;1.30;0.55;;;;;;;;;;4991514;28;20025;-73
2021/10/06 14:01:12;;;;;;;1.25;0.20;;;;;;;;;;4977191;28;20040;-72
2021/10/06 14:03:37;;;;;;;1.80;0.30;;;;;;;;;;5010856;28;20025;-71
2021/10/06 14:06:03;;;;;;;1.08;0.20;;;;;;;;;;4994023;28;20117;-73
2021/10/06 14:08:28;;;;;;;1.65;0.20;;;;;;;;;;5011553;28;20113;-72
2021/10/06 14:10:53;;;;;;;4.28;0.50;;;;;;;;;;5011450;28;20032;-77
2021/10/06 14:13:18;;;;;;;0.60;0.17;;;;;;;;;;4993018;28;20474;-70
2021/10/06 14:15:44;;;;;;;1.67;0.38;;;;;;;;;;4993442;28;20029;-72
2021/10/06 14:18:09;;;;;;;1.60;0.10;;;;;;;;;;5011696;28;20466;-71
2021/10/06 14:20:34;;;;;;;3.13;0.10;;;;;;;;;;4992976;28;20022;-73
2021/10/06 14:23:00;;;;;;;3.20;0.40;;;;;;;;;;4993045;28;20022;-72
2021/10/06 14:25:25;;;;;;;1.92;0.38;;;;;;;;;;4990771;28;20353;-72
2021/10/06 14:27:50;;;;;;;2.05;0.20;;;;;;;;;;5011935;28;20038;-73
2021/10/06 14:30:16;;;;;;;2.55;0.20;;;;;;;;;;4992869;28;20177;-73
2021/10/06 14:32:41;;;;;;;2.95;0.47;;;;;;;;;;4992817;28;20167;-73
2021/10/06 14:35:07;;;;;;;0.70;0.30;;;;;;;;;;5010303;28;20038;-73
2021/10/06 14:37:32;;;;;;;3.40;0.30;;;;;;;;;;4993565;28;20025;-72